Time;durP1;ratioP1;P1;durP2;ratioP2;P2;SDS_P1;SDS_P2;PMS_P1;PMS_P2;Temp;Humidity;BMP_temperature;BMP_pressure;BME280_temperature;BME280_humidity;BME280_pressure;Samples;Min_cycle;Max_cycle;Signal;HPM_P1;HPM_P2
2022/10/23 00:01:34;;;;;;;19.95;10.50;;;;;;;11.73;100.00;100829.53;4932826;29;20091;-79
2022/10/23 00:04:04;;;;;;;18.98;9.88;;;;;;;11.61;100.00;100814.09;4930677;29;20099;-79
2022/10/23 00:06:33;;;;;;;20.67;10.02;;;;;;;11.66;100.00;100829.34;4935886;29;20056;-80
2022/10/23 00:09:00;;;;;;;24.13;9.88;;;;;;;11.49;100.00;100797.00;4934174;29;20088;-79
2022/10/23 00:11:29;;;;;;;20.23;9.50;;;;;;;11.45;100.00;100792.25;4934534;29;20112;-79
2022/10/23 00:14:41;;;;;;;19.73;10.50;;;;;;;11.54;100.00;100823.56;4932393;29;20112;-80
2022/10/23 00:17:13;;;;;;;20.02;10.02;;;;;;;11.46;100.00;100827.94;4912040;29;20055;-80
2022/10/23 00:19:40;;;;;;;20.98;9.73;;;;;;;11.26;100.00;100798.56;4932087;29;20186;-80
2022/10/23 00:22:11;;;;;;;23.92;10.05;;;;;;;11.35;100.00;100809.88;4935654;29;20088;-80
2022/10/23 00:24:38;;;;;;;17.88;9.60;;;;;;;11.32;100.00;100813.66;4925976;29;20062;-79
2022/10/23 00:27:07;;;;;;;22.48;11.48;;;;;;;11.43;100.00;100831.69;4925542;29;20063;-79
2022/10/23 00:29:34;;;;;;;20.48;10.20;;;;;;;11.40;100.00;100825.94;4923994;29;20076;-79
2022/10/23 00:32:02;;;;;;;18.50;9.20;;;;;;;11.17;100.00;100805.53;4926770;29;20152;-80
2022/10/23 00:34:31;;;;;;;15.40;10.15;;;;;;;11.13;100.00;100814.69;4928372;29;20076;-79
2022/10/23 00:36:58;;;;;;;16.63;9.88;;;;;;;11.22;100.00;100836.50;4926475;29;20080;-80
2022/10/23 00:39:26;;;;;;;22.27;9.80;;;;;;;11.07;100.00;100809.25;4924213;29;20123;-79
2022/10/23 00:41:53;;;;;;;18.00;10.40;;;;;;;11.22;100.00;100818.19;4924061;29;20056;-79
2022/10/23 00:44:56;;;;;;;20.02;9.82;;;;;;;11.35;100.00;100822.97;4923212;29;20063;-80
2022/10/23 00:47:23;;;;;;;21.87;10.20;;;;;;;11.34;100.00;100823.97;4918502;29;20076;-78
2022/10/23 00:49:51;;;;;;;22.73;10.13;;;;;;;11.29;100.00;100801.69;4918790;29;20331;-78
2022/10/23 00:52:20;;;;;;;20.13;10.10;;;;;;;11.40;100.00;100805.81;4921502;29;20056;-79
2022/10/23 00:54:58;;;;;;;20.95;9.95;;;;;;;11.37;100.00;100811.34;4921558;29;20055;-79
2022/10/23 00:57:32;;;;;;;21.35;10.75;;;;;;;11.32;100.00;100803.19;4922602;29;20052;-79
2022/10/23 01:00:00;;;;;;;24.05;9.70;;;;;;;11.30;100.00;100797.28;4921668;29;20048;-80
2022/10/23 01:05:36;;;;;;;16.65;10.07;;;;;;;11.36;100.00;100799.22;4912052;29;20052;-82
2022/10/23 01:08:07;;;;;;;19.15;9.82;;;;;;;11.38;100.00;100797.28;4922416;29;20060;-80
2022/10/23 01:10:43;;;;;;;17.55;9.30;;;;;;;11.25;100.00;100779.41;4921621;29;20074;-79
2022/10/23 01:13:33;;;;;;;18.27;8.57;;;;;;;11.41;100.00;100791.72;4921516;29;20104;-79
2022/10/23 01:16:17;;;;;;;16.05;9.05;;;;;;;11.40;100.00;100795.31;4910972;29;20063;-80
2022/10/23 01:19:23;;;;;;;21.00;9.68;;;;;;;11.24;100.00;100764.66;4920913;29;20624;-79
2022/10/23 01:22:11;;;;;;;16.15;9.10;;;;;;;11.43;100.00;100805.50;4918658;29;20056;-79
2022/10/23 01:28:44;;;;;;;18.60;9.48;;;;;;;11.31;100.00;100788.44;4904420;29;20064;-79
2022/10/23 01:31:42;;;;;;;14.98;8.30;;;;;;;11.22;100.00;100761.38;4919273;29;20135;-80
2022/10/23 01:34:26;;;;;;;13.45;9.45;;;;;;;11.41;100.00;100786.50;4922325;29;20059;-80
2022/10/23 01:36:54;;;;;;;16.15;9.15;;;;;;;11.38;100.00;100781.56;4925026;29;20060;-79
2022/10/23 01:42:14;;;;;;;25.83;8.88;;;;;;;11.19;100.00;100755.63;4919703;29;20103;-79
2022/10/23 01:44:47;;;;;;;15.18;8.68;;;;;;;11.21;100.00;100764.16;4921390;29;20112;-79
2022/10/23 01:47:19;;;;;;;16.52;8.82;;;;;;;11.32;100.00;100779.59;4919153;29;20586;-78
2022/10/23 01:49:49;;;;;;;14.75;9.05;;;;;;;11.18;100.00;100764.47;4919393;29;20472;-79
2022/10/23 01:52:18;;;;;;;13.85;8.75;;;;;;;11.20;100.00;100770.38;4918786;29;20451;-78
2022/10/23 01:54:47;;;;;;;22.50;8.60;;;;;;;11.26;100.00;100772.38;4919745;29;20056;-79
2022/10/23 01:57:17;;;;;;;14.18;8.27;;;;;;;11.15;100.00;100742.03;4922335;29;20100;-80
2022/10/23 01:59:50;;;;;;;16.90;8.40;;;;;;;11.25;100.00;100770.72;4921951;29;20509;-79
2022/10/23 02:02:20;;;;;;;21.38;9.48;;;;;;;11.14;100.00;100742.19;4921772;29;20142;-80
2022/10/23 02:04:55;;;;;;;17.73;9.00;;;;;;;10.96;100.00;100719.50;4920316;29;20048;-79
2022/10/23 02:07:25;;;;;;;17.65;8.43;;;;;;;11.03;100.00;100730.16;4917536;29;20055;-78
2022/10/23 02:09:54;;;;;;;19.45;8.05;;;;;;;11.08;100.00;100716.63;4916210;29;20063;-78
2022/10/23 02:12:30;;;;;;;20.13;8.15;;;;;;;11.37;100.00;100745.84;4918752;29;20048;-80
2022/10/23 02:15:49;;;;;;;17.20;8.18;;;;;;;11.27;100.00;100711.13;4920325;29;20048;-80
2022/10/23 02:18:54;;;;;;;23.13;8.50;;;;;;;11.25;100.00;100707.84;4902999;29;20056;-80
2022/10/23 02:21:46;;;;;;;16.83;8.07;;;;;;;11.42;100.00;100719.19;4914626;29;20143;-79
2022/10/23 02:25:06;;;;;;;;;;;;;;;;;;;;;
2022/10/23 02:31:24;;;;;;;16.63;7.90;;;;;;;11.38;100.00;100708.19;4953635;23;20188;-79
2022/10/23 02:37:36;;;;;;;19.83;8.73;;;;;;;11.43;100.00;100690.19;4888820;29;20051;-80
2022/10/23 02:43:19;;;;;;;14.65;7.82;;;;;;;11.57;100.00;100713.19;4967595;23;20146;-80
2022/10/23 02:45:53;;;;;;;21.27;8.60;;;;;;;11.61;100.00;100711.88;4956974;28;20055;-80
2022/10/23 02:48:23;;;;;;;20.80;7.72;;;;;;;11.68;100.00;100706.81;4957458;28;20061;-80
2022/10/23 02:50:58;;;;;;;14.52;8.07;;;;;;;11.70;100.00;100702.22;4958079;28;20150;-79
2022/10/23 02:53:35;;;;;;;14.15;7.70;;;;;;;11.73;100.00;100701.09;4940632;28;20052;-79
2022/10/23 02:56:09;;;;;;;19.88;7.95;;;;;;;11.76;100.00;100690.28;4939095;29;20051;-79
2022/10/23 02:58:43;;;;;;;15.88;7.90;;;;;;;11.74;100.00;100693.06;4938787;29;20123;-79
2022/10/23 03:01:14;;;;;;;13.13;7.60;;;;;;;11.74;100.00;100690.44;4938463;29;20130;-79
2022/10/23 03:03:45;;;;;;;12.40;7.43;;;;;;;11.71;100.00;100697.81;4939775;29;20130;-79
2022/10/23 03:06:12;;;;;;;18.35;8.23;;;;;;;11.72;100.00;100697.66;4938954;29;20127;-79
2022/10/23 03:08:43;;;;;;;17.48;7.75;;;;;;;11.74;100.00;100695.69;4939982;29;20065;-79
2022/10/23 03:11:11;;;;;;;18.27;7.05;;;;;;;11.78;100.00;100688.34;4919551;29;20051;-79
2022/10/23 03:13:38;;;;;;;15.30;7.07;;;;;;;11.80;100.00;100675.91;4919340;29;20082;-80
2022/10/23 03:16:04;;;;;;;15.30;6.95;;;;;;;11.83;100.00;100663.25;4926955;29;20062;-80
2022/10/23 03:18:31;;;;;;;13.88;6.70;;;;;;;11.85;100.00;100655.22;4937607;29;20066;-80
2022/10/23 03:20:57;;;;;;;14.57;7.10;;;;;;;11.85;100.00;100652.59;4937961;29;20139;-80
2022/10/23 03:23:24;;;;;;;13.18;7.55;;;;;;;11.94;100.00;100656.88;4937543;29;20134;-80
2022/10/23 03:25:52;;;;;;;12.63;6.93;;;;;;;11.93;100.00;100655.25;4937554;29;20043;-81
2022/10/23 03:28:20;;;;;;;17.85;6.80;;;;;;;11.95;100.00;100658.53;4937317;29;20055;-80
2022/10/23 03:30:46;;;;;;;16.67;6.68;;;;;;;11.93;100.00;100650.00;4937226;29;20770;-80
2022/10/23 03:33:13;;;;;;;16.02;6.75;;;;;;;11.93;100.00;100660.47;4937517;29;20507;-80
2022/10/23 03:35:39;;;;;;;15.13;7.00;;;;;;;11.92;100.00;100658.84;4937370;29;20062;-79
2022/10/23 03:38:06;;;;;;;15.05;6.70;;;;;;;11.90;100.00;100650.31;4937148;29;20083;-79
2022/10/23 03:40:33;;;;;;;10.27;6.47;;;;;;;11.90;100.00;100666.06;4937580;29;20103;-79
2022/10/23 03:42:59;;;;;;;9.70;6.68;;;;;;;11.85;100.00;100660.47;4937734;29;20051;-78
2022/10/23 03:45:27;;;;;;;15.85;6.97;;;;;;;11.80;100.00;100675.91;4936283;29;20070;-77
2022/10/23 03:47:54;;;;;;;11.23;7.00;;;;;;;11.82;100.00;100674.72;4938248;29;20176;-79
2022/10/23 03:50:20;;;;;;;12.20;6.65;;;;;;;11.82;100.00;100677.34;4938805;29;20135;-80
2022/10/23 03:52:47;;;;;;;22.05;6.65;;;;;;;11.84;100.00;100672.75;4938561;29;20128;-80
2022/10/23 03:55:14;;;;;;;16.27;7.18;;;;;;;11.87;100.00;100682.09;4938785;29;20173;-80
2022/10/23 03:57:40;;;;;;;15.93;7.00;;;;;;;11.87;100.00;100663.75;4939368;29;20052;-80
2022/10/23 04:00:08;;;;;;;17.00;6.97;;;;;;;11.89;100.00;100669.66;4938504;29;20058;-79
2022/10/23 04:02:36;;;;;;;14.85;6.85;;;;;;;11.88;100.00;100657.53;4938162;29;20090;-76
2022/10/23 04:05:03;;;;;;;16.65;6.72;;;;;;;11.93;100.00;100650.00;4934550;29;20143;-76
2022/10/23 04:07:29;;;;;;;17.83;7.00;;;;;;;11.92;100.00;100654.41;4934350;29;20058;-76
2022/10/23 04:09:56;;;;;;;11.73;6.97;;;;;;;11.91;100.00;100644.91;4932527;29;20555;-76
2022/10/23 04:12:22;;;;;;;17.48;7.28;;;;;;;11.90;100.00;100650.31;4933720;29;20162;-76
2022/10/23 04:14:49;;;;;;;17.50;6.60;;;;;;;11.85;100.00;100642.13;4934132;29;20051;-77
2022/10/23 04:17:15;;;;;;;14.68;6.45;;;;;;;11.88;100.00;100647.03;4933177;29;20135;-76
2022/10/23 04:19:43;;;;;;;14.93;6.57;;;;;;;11.85;100.00;100644.75;4933468;29;20138;-77
2022/10/23 04:22:10;;;;;;;11.77;6.03;;;;;;;11.86;100.00;100643.75;4933744;29;20067;-77
2022/10/23 04:24:36;;;;;;;14.88;6.78;;;;;;;11.86;100.00;100643.75;4933859;29;20087;-77
2022/10/23 04:27:03;;;;;;;12.25;6.45;;;;;;;11.90;100.00;100650.31;4933736;29;20126;-77
2022/10/23 04:29:31;;;;;;;8.93;6.60;;;;;;;11.92;100.00;100648.34;4932857;29;20054;-77
2022/10/23 04:31:58;;;;;;;12.27;6.63;;;;;;;11.94;100.00;100646.38;4933094;29;20478;-76
2022/10/23 04:34:24;;;;;;;9.60;5.95;;;;;;;11.92;100.00;100635.25;4933658;29;20048;-77
2022/10/23 04:36:52;;;;;;;13.77;6.57;;;;;;;11.99;100.00;100635.41;4933899;29;20497;-75
2022/10/23 04:39:19;;;;;;;13.80;6.13;;;;;;;11.95;100.00;100627.06;4936547;29;20057;-76
2022/10/23 04:41:45;;;;;;;13.77;6.55;;;;;;;11.94;100.00;100622.78;4936695;29;20139;-76
2022/10/23 04:44:12;;;;;;;13.82;6.25;;;;;;;11.91;100.00;100615.25;4937156;29;20058;-76
2022/10/23 04:46:39;;;;;;;12.88;5.50;;;;;;;11.94;100.00;100617.53;4936589;29;20056;-77
2022/10/23 04:49:05;;;;;;;14.38;6.88;;;;;;;11.93;100.00;100618.53;4936415;29;20051;-78
2022/10/23 04:51:32;;;;;;;13.30;6.05;;;;;;;11.91;100.00;100615.25;4936906;29;20400;-77
2022/10/23 04:54:00;;;;;;;10.50;5.60;;;;;;;11.92;100.00;100622.13;4936972;29;20055;-79
2022/10/23 04:56:26;;;;;;;11.77;6.00;;;;;;;11.86;100.00;100607.88;4936939;29;20047;-77
2022/10/23 04:58:53;;;;;;;20.65;6.35;;;;;;;11.90;100.00;100611.00;4935914;29;20051;-78
2022/10/23 05:01:20;;;;;;;12.45;5.85;;;;;;;11.92;100.00;100611.66;4936221;29;20330;-78
2022/10/23 05:03:46;;;;;;;12.40;5.78;;;;;;;11.88;100.00;100612.97;4936889;29;20051;-78
2022/10/23 05:06:13;;;;;;;12.55;5.93;;;;;;;11.77;100.00;100613.31;4936483;29;20130;-78
2022/10/23 05:08:40;;;;;;;13.15;6.10;;;;;;;11.76;100.00;100614.25;4936498;29;20052;-77
2022/10/23 05:11:07;;;;;;;10.05;6.00;;;;;;;11.69;100.00;100610.66;4936297;29;20147;-77
2022/10/23 05:13:35;;;;;;;15.18;5.93;;;;;;;11.68;100.00;100606.38;4936253;29;20058;-77
2022/10/23 05:16:01;;;;;;;14.82;6.50;;;;;;;11.63;100.00;100607.69;4936059;29;20054;-78
2022/10/23 05:18:34;;;;;;;13.98;6.25;;;;;;;11.63;100.00;100606.88;4935896;29;20047;-77
2022/10/23 05:21:03;;;;;;;;;;;;;;;11.64;100.00;100595.41;4936894;29;20135;-77
2022/10/23 05:23:33;;;;;;;14.02;6.30;;;;;;;11.63;100.00;100597.22;4936239;29;20392;-77
2022/10/23 05:26:02;;;;;;;11.52;6.00;;;;;;;11.58;100.00;100583.78;4936257;29;20138;-77
2022/10/23 05:28:30;;;;;;;13.82;6.00;;;;;;;11.54;100.00;100590.31;4935872;29;20052;-78
2022/10/23 05:30:58;;;;;;;11.80;5.85;;;;;;;11.52;100.00;100584.44;4935727;29;20048;-78
2022/10/23 05:33:25;;;;;;;13.77;6.57;;;;;;;11.48;100.00;100585.72;4936344;29;20059;-77
2022/10/23 05:35:52;;;;;;;15.35;6.82;;;;;;;11.43;100.00;100580.16;4935766;29;20048;-77
2022/10/23 05:38:19;;;;;;;12.80;6.15;;;;;;;11.45;100.00;100583.44;4935411;29;20081;-77
2022/10/23 05:40:46;;;;;;;16.15;6.13;;;;;;;11.46;100.00;100579.84;4935859;29;20043;-76
2022/10/23 05:43:12;;;;;;;15.82;6.20;;;;;;;11.48;100.00;100577.06;4935414;29;20543;-77
2022/10/23 05:45:40;;;;;;;11.38;6.07;;;;;;;11.50;100.00;100581.16;4935329;29;20043;-78
2022/10/23 05:48:07;;;;;;;9.15;6.05;;;;;;;11.54;100.00;100571.97;4935365;29;20056;-77
2022/10/23 05:50:36;;;;;;;14.85;6.45;;;;;;;11.50;100.00;100565.44;4936095;29;20423;-77
2022/10/23 05:53:03;;;;;;;16.80;6.68;;;;;;;11.54;100.00;100569.38;4936324;29;20537;-77
2022/10/23 05:55:30;;;;;;;14.80;6.68;;;;;;;11.51;100.00;100563.63;4935571;29;20126;-76
2022/10/23 05:57:56;;;;;;;17.65;6.32;;;;;;;11.54;100.00;100555.44;4916437;29;20111;-77
2022/10/23 06:00:23;;;;;;;10.93;6.25;;;;;;;11.56;100.00;100551.69;4918854;29;20048;-76
2022/10/23 06:02:51;;;;;;;13.73;5.80;;;;;;;11.61;100.00;100553.81;4935530;29;20155;-76
2022/10/23 06:05:17;;;;;;;16.45;6.00;;;;;;;11.60;100.00;100545.13;4935192;29;20526;-77
2022/10/23 06:07:44;;;;;;;15.10;6.10;;;;;;;11.60;100.00;100532.03;4935597;29;20412;-77
2022/10/23 06:10:10;;;;;;;7.93;5.97;;;;;;;11.69;100.00;100542.50;4935129;29;20051;-76
2022/10/23 06:12:37;;;;;;;12.13;6.20;;;;;;;11.68;100.00;100540.88;4916534;29;20054;-76
2022/10/23 06:15:04;;;;;;;10.25;5.75;;;;;;;11.66;100.00;100532.34;4917557;29;20052;-77
2022/10/23 06:17:31;;;;;;;10.55;5.95;;;;;;;11.67;100.00;100547.91;4935130;29;20079;-77
2022/10/23 06:20:01;;;;;;;12.07;5.70;;;;;;;11.70;100.00;100538.91;4934944;29;20134;-76
2022/10/23 06:22:28;;;;;;;11.70;5.68;;;;;;;11.68;100.00;100546.94;4935351;29;20056;-77
2022/10/23 06:24:55;;;;;;;9.13;5.68;;;;;;;11.73;100.00;100543.81;4936023;29;20066;-77
2022/10/23 06:27:22;;;;;;;13.73;6.18;;;;;;;11.73;100.00;100543.81;4936166;29;20447;-76
2022/10/23 06:29:48;;;;;;;10.80;5.53;;;;;;;11.71;100.00;100533.50;4935174;29;20076;-76
2022/10/23 06:32:15;;;;;;;14.13;5.97;;;;;;;11.73;100.00;100538.56;4935115;29;20131;-77
2022/10/23 06:34:42;;;;;;;15.60;5.90;;;;;;;11.79;100.00;100537.94;4935554;29;20139;-77
2022/10/23 06:37:09;;;;;;;14.38;5.60;;;;;;;11.79;100.00;100540.56;4935159;29;20066;-76
2022/10/23 06:39:39;;;;;;;12.57;5.95;;;;;;;11.83;100.00;100540.03;4934871;29;20106;-77
2022/10/23 06:42:06;;;;;;;12.25;5.95;;;;;;;11.93;100.00;100535.44;4935103;29;20055;-76
2022/10/23 06:44:33;;;;;;;8.48;5.68;;;;;;;11.96;100.00;100524.63;4935160;29;20048;-76
2022/10/23 06:47:00;;;;;;;14.35;5.70;;;;;;;12.03;100.00;100524.78;4935221;29;20047;-77
2022/10/23 06:49:27;;;;;;;16.05;5.43;;;;;;;12.15;100.00;100523.44;4934565;29;20435;-77
2022/10/23 06:51:54;;;;;;;12.07;5.18;;;;;;;12.34;100.00;100531.88;4934629;29;20127;-76
2022/10/23 06:54:22;;;;;;;10.40;5.43;;;;;;;12.34;100.00;100516.13;4935161;29;20062;-77
2022/10/23 06:56:48;;;;;;;16.27;5.18;;;;;;;12.35;100.00;100517.75;4935456;29;20162;-77
2022/10/23 06:59:15;;;;;;;13.50;5.60;;;;;;;12.33;100.00;100522.38;4934322;29;20051;-77
2022/10/23 07:01:42;;;;;;;9.40;4.80;;;;;;;12.31;100.00;100517.28;4934255;29;20146;-77
2022/10/23 07:04:08;;;;;;;10.07;5.68;;;;;;;12.33;100.00;100519.75;4934884;29;20062;-77
2022/10/23 07:06:35;;;;;;;11.30;5.15;;;;;;;12.37;100.00;100513.16;4934057;29;20066;-77
2022/10/23 07:09:01;;;;;;;10.88;4.90;;;;;;;12.41;100.00;100506.59;4934365;29;20142;-77
2022/10/23 07:11:29;;;;;;;12.90;6.32;;;;;;;12.44;100.00;100506.25;4934542;29;20051;-77
2022/10/23 07:13:56;;;;;;;14.95;5.68;;;;;;;12.47;100.00;100511.97;4934919;29;20138;-77
2022/10/23 07:16:24;;;;;;;18.05;5.22;;;;;;;12.55;100.00;100508.50;4933489;29;20471;-77
2022/10/23 07:18:57;;;;;;;11.68;4.63;;;;;;;12.54;100.00;100507.69;4931819;29;20134;-74
2022/10/23 07:21:24;;;;;;;13.02;5.88;;;;;;;12.64;100.00;100512.72;4933829;29;20134;-76
2022/10/23 07:23:50;;;;;;;9.07;4.72;;;;;;;12.72;100.00;100512.69;4934537;29;20138;-75
2022/10/23 07:26:17;;;;;;;10.82;5.05;;;;;;;12.84;100.00;100506.03;4935937;29;20130;-77
2022/10/23 07:28:49;;;;;;;9.60;5.25;;;;;;;12.96;100.00;100509.91;4943114;28;20483;-76
2022/10/23 07:31:16;;;;;;;9.38;5.10;;;;;;;13.13;100.00;100507.97;4948993;28;20458;-76
2022/10/23 07:33:42;;;;;;;11.18;5.20;;;;;;;13.35;100.00;100495.03;4939928;28;20058;-77
2022/10/23 07:36:10;;;;;;;8.93;4.63;;;;;;;13.50;100.00;100499.34;4933095;29;20138;-78
2022/10/23 07:38:37;;;;;;;8.57;4.47;;;;;;;13.56;100.00;100500.44;4933275;29;20151;-77
2022/10/23 07:41:04;;;;;;;13.15;4.50;;;;;;;13.64;100.00;100495.09;4932092;29;20074;-77
2022/10/23 07:43:31;;;;;;;10.10;5.03;;;;;;;13.79;100.00;100487.22;4933756;29;20102;-76
2022/10/23 07:45:59;;;;;;;12.02;4.93;;;;;;;13.93;100.00;100483.78;4933179;29;20048;-77
2022/10/23 07:48:27;;;;;;;11.95;4.43;;;;;;;14.06;100.00;100483.97;4932796;29;20139;-76
2022/10/23 07:50:54;;;;;;;12.05;5.32;;;;;;;14.17;100.00;100486.16;4933572;29;20135;-77
2022/10/23 07:53:23;;;;;;;12.68;4.68;;;;;;;14.19;100.00;100470.97;4933438;29;20499;-77
2022/10/23 07:55:53;;;;;;;8.52;4.47;;;;;;;14.43;100.00;100474.31;4934229;29;20074;-76
2022/10/23 07:58:20;;;;;;;8.77;4.43;;;;;;;14.62;100.00;100476.38;4934124;29;20558;-77
2022/10/23 08:00:51;;;;;;;6.90;4.38;;;;;;;15.12;99.32;100485.97;4933896;29;20126;-78
2022/10/23 08:03:20;;;;;;;8.45;4.22;;;;;;;15.21;97.06;100476.13;4934988;29;20138;-77
2022/10/23 08:05:46;;;;;;;12.35;5.10;;;;;;;15.40;96.26;100472.84;4933578;29;20052;-77
2022/10/23 08:08:13;;;;;;;11.88;4.40;;;;;;;15.10;96.50;100466.13;4934619;29;20108;-77
2022/10/23 08:10:40;;;;;;;14.07;4.40;;;;;;;15.18;96.27;100460.69;4935105;29;20538;-77
2022/10/23 08:13:07;;;;;;;9.10;4.13;;;;;;;15.12;95.80;100469.38;4936917;29;20521;-77
2022/10/23 08:15:34;;;;;;;11.70;4.88;;;;;;;15.25;95.83;100464.19;4957197;28;20418;-77
2022/10/23 08:18:00;;;;;;;9.93;4.53;;;;;;;15.47;95.10;100463.16;4941634;28;20086;-77
2022/10/23 08:20:28;;;;;;;11.10;4.60;;;;;;;15.82;94.09;100476.41;4938040;29;20087;-77
2022/10/23 08:22:55;;;;;;;9.50;4.28;;;;;;;15.57;93.83;100471.59;4937854;29;20134;-79
2022/10/23 08:25:22;;;;;;;8.18;4.40;;;;;;;15.54;93.66;100476.41;4939748;29;20078;-78
2022/10/23 08:27:48;;;;;;;6.28;4.22;;;;;;;15.43;94.32;100474.28;4940430;29;20142;-78
2022/10/23 08:30:15;;;;;;;8.27;4.40;;;;;;;15.30;95.24;100467.06;4955749;29;20061;-78
2022/10/23 08:32:42;;;;;;;6.85;4.10;;;;;;;15.26;95.09;100461.38;4959402;28;20050;-78
2022/10/23 08:35:09;;;;;;;15.85;6.70;;;;;;;15.17;95.81;100473.03;4960574;28;20063;-79
2022/10/23 08:37:37;;;;;;;9.30;4.18;;;;;;;14.87;96.08;100461.84;4958864;28;20055;-78
2022/10/23 08:40:04;;;;;;;10.98;4.30;;;;;;;14.98;96.52;100457.06;4958198;28;20055;-78
2022/10/23 08:42:31;;;;;;;9.32;4.30;;;;;;;14.99;96.30;100454.25;4959041;28;20057;-79
2022/10/23 08:45:05;;;;;;;9.95;4.38;;;;;;;15.00;96.21;100455.06;4944047;29;20056;-80
2022/10/23 08:47:39;;;;;;;9.27;4.50;;;;;;;15.00;96.29;100460.34;4945182;29;20083;-79
2022/10/23 08:50:13;;;;;;;13.20;4.95;;;;;;;15.05;95.96;100457.94;4942407;29;20111;-79
2022/10/23 08:52:47;;;;;;;8.50;4.40;;;;;;;15.11;95.90;100436.13;4944974;29;20103;-78
2022/10/23 08:55:21;;;;;;;10.60;4.65;;;;;;;15.10;95.80;100439.75;4945221;29;20427;-79
2022/10/23 08:57:53;;;;;;;9.02;4.03;;;;;;;15.18;95.63;100432.50;4944843;29;20135;-76
2022/10/23 09:00:20;;;;;;;14.40;4.13;;;;;;;15.14;95.04;100430.44;4943724;29;20122;-79
2022/10/23 09:02:48;;;;;;;6.72;4.18;;;;;;;15.20;94.77;100429.69;4942244;29;20107;-76
2022/10/23 09:05:19;;;;;;;9.18;4.07;;;;;;;15.35;94.85;100424.31;4939386;29;20529;-78
2022/10/23 09:08:20;;;;;;;9.18;4.07;;;;;;;15.41;94.33;100424.38;4942602;29;20101;-78
2022/10/23 09:10:58;;;;;;;7.05;4.15;;;;;;;15.53;94.19;100414.13;4941322;29;20141;-79
2022/10/23 09:13:50;;;;;;;7.75;4.28;;;;;;;15.66;93.41;100416.03;4940484;29;20044;-79
2022/10/23 09:16:30;;;;;;;7.93;4.10;;;;;;;15.78;92.61;100417.94;4943398;29;20098;-79
2022/10/23 09:18:58;;;;;;;10.40;4.13;;;;;;;15.84;91.73;100405.78;4941529;29;20122;-79
2022/10/23 09:21:27;;;;;;;8.48;4.53;;;;;;;15.84;91.47;100403.16;4940723;29;20135;-78
2022/10/23 09:23:55;;;;;;;11.15;4.25;;;;;;;15.99;91.02;100393.28;4939460;29;20134;-79
2022/10/23 09:26:22;;;;;;;6.53;3.90;;;;;;;15.93;91.34;100394.88;4942674;29;20119;-79
2022/10/23 09:28:50;;;;;;;6.43;4.20;;;;;;;16.09;91.33;100391.06;4938899;29;20105;-79
2022/10/23 09:31:21;;;;;;;8.02;4.15;;;;;;;16.04;90.79;100387.41;4943370;29;20098;-79
2022/10/23 09:33:55;;;;;;;7.32;3.58;;;;;;;16.15;90.87;100382.34;4943575;29;20054;-79
2022/10/23 09:36:24;;;;;;;7.63;4.10;;;;;;;16.29;90.34;100388.50;4941693;29;20059;-79
2022/10/23 09:38:53;;;;;;;9.90;4.05;;;;;;;16.19;90.37;100378.31;4943170;29;20134;-80
2022/10/23 09:41:25;;;;;;;8.57;4.18;;;;;;;16.44;90.39;100380.41;4943239;29;20475;-79
2022/10/23 09:44:19;;;;;;;9.53;4.67;;;;;;;16.47;90.43;100380.00;4943526;29;20063;-81
2022/10/23 09:46:48;;;;;;;6.22;3.60;;;;;;;16.34;89.95;100364.13;4944469;29;20291;-80
2022/10/23 09:49:17;;;;;;;11.07;4.20;;;;;;;16.40;90.31;100363.34;4945648;29;20086;-79
2022/10/23 09:51:54;;;;;;;7.10;4.10;;;;;;;16.34;90.20;100364.13;4943837;29;20055;-79
2022/10/23 09:54:22;;;;;;;7.35;4.07;;;;;;;16.31;89.83;100333.66;4948559;29;20079;-77
2022/10/23 09:56:53;;;;;;;9.30;4.22;;;;;;;16.50;89.53;100342.63;4945230;29;20087;-79
2022/10/23 09:59:23;;;;;;;6.53;4.10;;;;;;;16.49;89.86;100346.28;4944546;29;20055;-78
2022/10/23 10:01:52;;;;;;;8.55;3.88;;;;;;;16.49;89.89;100322.53;4944239;29;20111;-80
2022/10/23 10:04:18;;;;;;;13.48;4.03;;;;;;;16.53;89.75;100334.31;4945416;29;20051;-80
2022/10/23 10:06:45;;;;;;;6.72;4.07;;;;;;;16.58;89.43;100340.59;4943607;29;20138;-79
2022/10/23 10:09:14;;;;;;;9.88;4.20;;;;;;;16.68;89.12;100334.13;4942264;29;20085;-78
2022/10/23 10:11:46;;;;;;;5.82;3.97;;;;;;;16.62;89.51;100325.16;4948821;28;20067;-81
2022/10/23 10:14:41;;;;;;;7.28;4.10;;;;;;;16.71;89.40;100323.97;4961894;28;20054;-79
2022/10/23 10:17:18;;;;;;;8.65;3.65;;;;;;;16.77;88.89;100325.00;4939155;29;20036;-80
2022/10/23 10:20:03;;;;;;;6.28;3.70;;;;;;;16.83;89.03;100310.97;4947131;29;20051;-80
2022/10/23 10:22:38;;;;;;;5.72;3.80;;;;;;;16.84;88.93;100316.06;4947520;29;20074;-80
2022/10/23 10:25:13;;;;;;;7.40;4.00;;;;;;;16.89;89.02;100310.97;4947711;29;20064;-80
2022/10/23 10:27:50;;;;;;;7.47;4.00;;;;;;;16.98;89.01;100316.03;4947633;29;20089;-81
2022/10/23 10:30:21;;;;;;;10.30;3.75;;;;;;;16.93;88.68;100295.50;4946343;29;20051;-79
2022/10/23 10:32:54;;;;;;;9.63;4.43;;;;;;;16.96;88.74;100304.88;4944411;29;20087;-81
2022/10/23 10:35:26;;;;;;;;;;;;;;;17.04;88.97;100301.97;4944140;29;20115;-80
2022/10/23 10:38:17;;;;;;;4.93;3.30;;;;;;;16.95;88.17;100276.81;4946681;29;19986;-79
2022/10/23 10:40:52;;;;;;;5.60;3.50;;;;;;;17.10;87.86;100286.09;4933856;29;20134;-80
2022/10/23 10:43:30;;;;;;;6.95;3.63;;;;;;;17.11;87.36;100279.00;4946226;29;20139;-81
2022/10/23 10:46:03;;;;;;;6.20;3.42;;;;;;;17.15;86.31;100269.63;4944224;29;20295;-79
2022/10/23 10:48:41;;;;;;;6.97;3.28;;;;;;;17.16;85.88;100263.31;4946589;29;20103;-80
2022/10/23 10:51:15;;;;;;;6.63;3.53;;;;;;;17.16;85.51;100264.13;4944391;29;20102;-81
2022/10/23 10:53:55;;;;;;;10.13;3.60;;;;;;;17.10;85.32;100246.47;4947097;29;20055;-80
2022/10/23 10:56:25;;;;;;;5.95;3.40;;;;;;;17.13;84.80;100264.56;4946469;29;20098;-81
2022/10/23 10:58:56;;;;;;;5.93;3.20;;;;;;;17.12;84.46;100264.75;4955980;29;20078;-80
2022/10/23 11:01:28;;;;;;;4.25;3.33;;;;;;;17.14;84.42;100247.66;4964041;28;20043;-80
2022/10/23 11:04:01;;;;;;;6.57;3.40;;;;;;;17.20;84.22;100248.66;4964031;28;20082;-79
2022/10/23 11:06:33;;;;;;;10.13;4.00;;;;;;;17.24;84.66;100257.81;4944865;29;20138;-79
2022/10/23 11:09:04;;;;;;;7.63;3.22;;;;;;;17.17;84.50;100255.19;4945882;29;20142;-80
2022/10/23 11:11:35;;;;;;;6.28;3.08;;;;;;;17.13;84.55;100255.81;4946791;29;20058;-80
2022/10/23 11:14:02;;;;;;;7.75;3.40;;;;;;;17.04;85.26;100262.34;4945223;29;20179;-79
2022/10/23 11:16:41;;;;;;;4.95;3.47;;;;;;;16.90;85.97;100243.88;4946656;29;20075;-79
2022/10/23 11:19:15;;;;;;;6.22;3.50;;;;;;;16.85;86.60;100241.03;4946908;29;20060;-80
2022/10/23 11:21:47;;;;;;;7.15;3.30;;;;;;;16.79;88.03;100235.75;4946579;29;20400;-80
2022/10/23 11:24:51;;;;;;;4.57;3.20;;;;;;;16.57;89.95;100208.72;4947170;29;20080;-79
2022/10/23 11:27:48;;;;;;;5.78;3.80;;;;;;;16.57;89.52;100208.72;4932149;29;20074;-80
2022/10/23 11:30:27;;;;;;;7.75;3.60;;;;;;;16.48;89.84;100181.75;4939164;29;20056;-79
2022/10/23 11:33:27;;;;;;;7.97;3.50;;;;;;;16.48;89.68;100162.44;4942580;29;20048;-80
2022/10/23 11:36:04;;;;;;;12.88;4.60;;;;;;;16.66;88.45;100183.75;4938661;29;20533;-80
2022/10/23 11:38:37;;;;;;;6.38;3.60;;;;;;;16.78;88.49;100184.75;4933340;29;20058;-80
2022/10/23 11:41:06;;;;;;;8.60;3.75;;;;;;;16.70;88.68;100173.59;4939293;28;20133;-80
2022/10/23 11:43:48;;;;;;;9.95;3.50;;;;;;;16.98;89.10;100191.81;4940254;29;20047;-80
2022/10/23 11:46:31;;;;;;;6.18;3.55;;;;;;;17.09;88.82;100156.78;4945293;29;20558;-79
2022/10/23 11:49:02;;;;;;;5.25;3.38;;;;;;;17.27;87.41;100170.13;4948526;29;20052;-80
2022/10/23 11:51:33;;;;;;;7.18;3.50;;;;;;;17.42;86.39;100168.03;4947503;29;20059;-80
2022/10/23 11:54:23;;;;;;;7.60;3.50;;;;;;;17.47;86.23;100170.84;4943753;29;20055;-80
2022/10/23 11:57:10;;;;;;;8.73;3.70;;;;;;;17.59;85.12;100169.13;4943983;29;20051;-79